Arbuckle, California
Current Conditions -  °F | °C
As of 6:53 AM on Saturday 20 Dec 2014 (Local Time) from KMYV Reporting Station
Overcast Overcast  
Wind Chill: 53°   Ceiling: 1900
Heat Index: 53°   Visibility: 10mi
Dew Point: 50°   Wind: 9mph
Humidity: 89%   Direction: 140°SE
Pressure: 30.16"   Gusts: NA
Location:  39.02°N, 122.06°W
Report Text: KMYV 201453Z AUTO 14008KT 10SM OVC019 12/10 A3016 RMK AO2 SLP217 T01170100 51004
Loading
Personal Weather Stations






























Interactive Weather Map New forecast layout! Learn more

10-Day Weather Forecast

Advertisements
Track Severe Weather on mobile